createdAt,value
2022-08-03T00:00:55.012Z,21.20
2022-08-03T00:06:04.772Z,20.37
2022-08-03T00:11:08.031Z,19.82
2022-08-03T00:16:10.958Z,19.40
2022-08-03T00:21:13.666Z,20.18
2022-08-03T00:26:18.718Z,22.83
2022-08-03T00:31:23.098Z,22.62
2022-08-03T00:36:42.797Z,20.99
2022-08-03T00:41:45.465Z,20.13
2022-08-03T00:46:48.209Z,19.55
2022-08-03T00:51:51.311Z,19.11
2022-08-03T00:57:00.034Z,20.00
2022-08-03T01:02:03.259Z,22.68
2022-08-03T01:07:25.917Z,22.36
2022-08-03T01:12:31.713Z,20.74
2022-08-03T01:17:44.587Z,19.83
2022-08-03T01:23:28.985Z,19.20
2022-08-03T01:29:02.435Z,20.33
2022-08-03T01:34:09.309Z,22.77
2022-08-03T01:39:19.339Z,21.66
2022-08-03T01:44:29.786Z,20.32
2022-08-03T01:49:39.655Z,19.55
2022-08-03T01:54:45.664Z,18.99
2022-08-03T01:59:50.998Z,19.72
2022-08-03T02:04:56.999Z,22.36
2022-08-03T02:10:02.927Z,21.94
2022-08-03T02:15:07.288Z,20.41
2022-08-03T02:20:13.606Z,19.54
2022-08-03T02:25:16.557Z,18.95
2022-08-03T02:30:20.771Z,18.45
2022-08-03T02:35:26.517Z,19.34
2022-08-03T02:40:31.555Z,22.08
2022-08-03T02:45:36.825Z,21.44
2022-08-03T02:50:40.554Z,20.00
2022-08-03T02:55:45.989Z,19.19
2022-08-03T03:00:51.968Z,18.65
2022-08-03T03:05:57.659Z,18.21
2022-08-03T03:11:02.032Z,19.21
2022-08-03T03:16:06.467Z,21.96
2022-08-03T03:21:10.390Z,21.58
2022-08-03T03:26:15.466Z,20.14
2022-08-03T03:31:18.223Z,19.34
2022-08-03T03:36:20.955Z,18.78
2022-08-03T03:41:23.820Z,18.31
2022-08-03T03:46:26.803Z,19.33
2022-08-03T03:51:29.599Z,22.11
2022-08-03T03:56:32.999Z,21.77
2022-08-03T04:01:35.771Z,20.25
2022-08-03T04:06:56.992Z,19.43
2022-08-03T04:12:01.875Z,18.89
2022-08-03T04:17:09.418Z,18.52
2022-08-03T04:22:15.130Z,19.54
2022-08-03T04:27:22.510Z,22.33
2022-08-03T04:32:28.831Z,21.97
2022-08-03T04:37:48.179Z,20.44
2022-08-03T04:42:53.741Z,19.57
2022-08-03T04:47:57.770Z,19.07
2022-08-03T04:53:00.677Z,19.94
2022-08-03T04:58:05.127Z,22.58
2022-08-03T05:03:23.720Z,21.99
2022-08-03T05:08:27.826Z,20.65
2022-08-03T05:13:31.334Z,20.02
2022-08-03T05:18:34.186Z,19.61
2022-08-03T05:23:38.016Z,20.48
2022-08-03T05:28:51.373Z,23.09
2022-08-03T05:33:54.892Z,22.35
2022-08-03T05:39:02.452Z,21.23
2022-08-03T05:44:06.073Z,20.69
2022-08-03T05:49:08.845Z,20.43
2022-08-03T05:54:11.941Z,20.35
2022-08-03T05:59:36.962Z,21.88
2022-08-03T06:04:38.166Z,24.42
2022-08-03T06:10:33.627Z,23.53
2022-08-03T06:15:05.433Z,22.75
2022-08-03T06:20:11.042Z,22.44
2022-08-03T06:25:14.255Z,22.30
2022-08-03T06:30:21.059Z,22.24
2022-08-03T06:35:24.592Z,22.13
2022-08-03T06:40:31.381Z,22.07
2022-08-03T06:45:35.487Z,23.54
2022-08-03T06:50:41.577Z,25.70
2022-08-03T06:55:45.341Z,24.99
2022-08-03T07:00:48.180Z,24.78
2022-08-03T07:05:51.397Z,24.84
2022-08-03T07:10:54.612Z,24.85
2022-08-03T07:15:57.461Z,24.74
2022-08-03T07:21:00.150Z,24.56
2022-08-03T07:26:03.065Z,24.60
2022-08-03T07:31:05.772Z,24.89
2022-08-03T07:36:08.481Z,25.05
2022-08-03T07:41:11.672Z,25.24
2022-08-03T07:46:15.162Z,25.63
2022-08-03T07:51:17.884Z,26.04
2022-08-03T07:56:21.447Z,26.33
2022-08-03T08:01:24.316Z,26.52
2022-08-03T08:06:27.173Z,26.66
2022-08-03T08:11:29.929Z,26.75
2022-08-03T08:16:34.313Z,26.83
2022-08-03T08:21:53.982Z,26.83
2022-08-03T08:27:01.507Z,26.74
2022-08-03T08:32:04.937Z,26.68
2022-08-03T08:37:08.011Z,26.68
2022-08-03T08:42:10.718Z,26.77
2022-08-03T08:47:14.871Z,26.78
2022-08-03T08:52:29.478Z,26.82
2022-08-03T08:57:43.102Z,26.92
2022-08-03T09:02:47.092Z,27.15
2022-08-03T09:07:50.283Z,27.52
2022-08-03T09:12:53.311Z,27.83
2022-08-03T09:17:58.106Z,27.95
2022-08-03T09:23:24.691Z,28.01
2022-08-03T09:28:59.916Z,28.12
2022-08-03T09:34:01.240Z,28.35
2022-08-03T09:39:06.570Z,28.77
2022-08-03T09:44:24.472Z,29.06
2022-08-03T09:49:28.650Z,29.31
2022-08-03T09:54:32.527Z,29.60
2022-08-03T09:59:35.436Z,29.72
2022-08-03T10:04:48.732Z,29.68
2022-08-03T10:10:31.302Z,29.72
2022-08-03T10:16:23.840Z,29.87
2022-08-03T10:20:54.658Z,30.04
2022-08-03T10:26:01.975Z,29.99
2022-08-03T10:31:07.940Z,30.16
2022-08-03T10:36:13.577Z,30.53
2022-08-03T10:41:20.027Z,30.57
2022-08-03T10:46:23.001Z,30.73
2022-08-03T10:51:30.617Z,31.08
2022-08-03T10:56:51.783Z,31.23
2022-08-03T11:02:00.121Z,31.22
2022-08-03T11:07:15.932Z,31.24
2022-08-03T11:12:30.608Z,31.29
2022-08-03T11:17:46.117Z,31.22
2022-08-03T11:23:01.156Z,31.12
2022-08-03T11:28:22.842Z,31.02
2022-08-03T11:33:31.939Z,30.98
2022-08-03T11:38:34.673Z,31.15
2022-08-03T11:43:37.737Z,31.33
2022-08-03T11:48:45.513Z,31.47
2022-08-03T11:53:53.077Z,31.47
2022-08-03T11:59:18.194Z,31.47
2022-08-03T12:04:21.065Z,31.42
2022-08-03T12:09:23.839Z,31.34
2022-08-03T12:14:49.019Z,31.29
2022-08-03T12:19:51.274Z,31.36
2022-08-03T12:24:54.302Z,31.51
2022-08-03T12:29:59.378Z,31.73
2022-08-03T12:35:04.628Z,31.79
2022-08-03T12:40:13.219Z,31.79
2022-08-03T12:45:20.295Z,31.88
2022-08-03T12:50:35.851Z,32.05
2022-08-03T12:55:56.994Z,32.32
2022-08-03T13:01:09.152Z,32.48
2022-08-03T13:06:17.678Z,32.60
2022-08-03T13:11:22.819Z,32.61
2022-08-03T13:16:45.501Z,32.50
2022-08-03T13:22:03.228Z,32.47
2022-08-03T13:28:01.661Z,32.48
2022-08-03T13:32:31.445Z,32.56
2022-08-03T13:37:34.335Z,32.37
2022-08-03T13:42:38.994Z,32.11
2022-08-03T13:47:42.081Z,32.02
2022-08-03T13:52:46.483Z,32.12
2022-08-03T13:58:11.466Z,32.26
2022-08-03T14:03:14.516Z,32.39
2022-08-03T14:08:18.578Z,32.50
2022-08-03T14:13:21.543Z,32.69
2022-08-03T14:18:28.872Z,32.78
2022-08-03T14:23:40.028Z,32.80
2022-08-03T14:28:42.721Z,32.82
2022-08-03T14:33:45.485Z,32.93
2022-08-03T14:38:48.335Z,33.08
2022-08-03T14:44:00.519Z,32.93
2022-08-03T14:50:38.377Z,32.70
2022-08-03T14:54:31.145Z,32.60
2022-08-03T14:59:55.666Z,32.56
2022-08-03T15:04:56.990Z,32.54
2022-08-03T15:09:59.716Z,32.67
2022-08-03T15:15:06.132Z,32.85
2022-08-03T15:20:25.505Z,33.08
2022-08-03T15:26:04.113Z,33.41
2022-08-03T15:30:56.319Z,33.67
2022-08-03T15:36:00.397Z,33.96
2022-08-03T15:41:03.203Z,34.19
2022-08-03T15:46:28.822Z,34.28
2022-08-03T15:51:28.946Z,34.40
2022-08-03T15:56:31.663Z,34.44
2022-08-03T16:01:34.877Z,34.40
2022-08-03T16:06:37.941Z,34.25
2022-08-03T16:11:40.646Z,34.02
2022-08-03T16:16:43.590Z,33.63
2022-08-03T16:21:48.250Z,33.36
2022-08-03T16:26:51.760Z,33.14
2022-08-03T16:31:54.459Z,32.96
2022-08-03T16:36:57.231Z,32.81
2022-08-03T16:42:01.717Z,32.61
2022-08-03T16:47:04.838Z,32.40
2022-08-03T16:52:07.700Z,32.27
2022-08-03T16:57:10.412Z,32.12
2022-08-03T17:02:27.268Z,31.98
2022-08-03T17:07:30.369Z,31.80
2022-08-03T17:12:33.347Z,31.59
2022-08-03T17:17:53.783Z,31.34
2022-08-03T17:23:34.694Z,31.15
2022-08-03T17:28:50.115Z,30.94
2022-08-03T17:34:01.352Z,30.68
2022-08-03T17:39:06.476Z,30.42
2022-08-03T17:44:15.687Z,30.19
2022-08-03T17:49:24.678Z,30.03
2022-08-03T17:55:51.521Z,29.91
2022-08-03T18:00:29.806Z,29.75
2022-08-03T18:06:11.466Z,29.61
2022-08-03T18:11:14.282Z,29.44
2022-08-03T18:16:24.804Z,29.26
2022-08-03T18:22:02.733Z,29.08
2022-08-03T18:26:53.576Z,28.91
2022-08-03T18:32:04.265Z,28.75
2022-08-03T18:37:12.242Z,28.56
2022-08-03T18:42:25.761Z,28.36
2022-08-03T18:47:50.969Z,28.17
2022-08-03T18:52:55.431Z,27.97
2022-08-03T18:58:19.824Z,27.79
2022-08-03T19:03:24.819Z,27.61
2022-08-03T19:08:33.401Z,27.41
2022-08-03T19:19:14.372Z,26.98
2022-08-03T19:24:23.322Z,26.73
2022-08-03T19:29:33.338Z,26.49
2022-08-03T19:34:54.161Z,26.27
2022-08-03T19:40:00.653Z,26.04
2022-08-03T19:45:11.303Z,25.84
2022-08-03T19:50:20.035Z,25.66
2022-08-03T19:55:23.808Z,25.50
2022-08-03T20:00:36.769Z,25.35
2022-08-03T20:05:51.901Z,25.17
2022-08-03T20:10:55.550Z,25.01
2022-08-03T20:15:58.388Z,24.84
2022-08-03T20:21:14.800Z,24.71
2022-08-03T20:26:20.357Z,24.55
2022-08-03T20:31:32.216Z,24.36
2022-08-03T20:36:39.108Z,24.19
2022-08-03T20:41:42.017Z,24.02
2022-08-03T20:46:53.169Z,23.83
2022-08-03T20:52:03.540Z,23.59
2022-08-03T20:57:09.577Z,23.44
2022-08-03T21:02:13.341Z,23.32
2022-08-03T21:07:24.434Z,23.21
2022-08-03T21:13:08.943Z,27.24
2022-08-03T21:13:19.059Z,23.12
2022-08-03T21:18:23.486Z,23.00
2022-08-03T21:23:39.981Z,22.89
2022-08-03T21:28:52.857Z,22.75
2022-08-03T21:34:04.147Z,22.61
2022-08-03T21:39:09.023Z,22.46
2022-08-03T21:44:11.961Z,22.33
2022-08-03T21:50:05.555Z,22.21
2022-08-03T21:54:42.174Z,22.11
2022-08-03T21:59:52.977Z,22.02
2022-08-03T22:04:57.297Z,21.89
2022-08-03T22:10:02.894Z,21.74
2022-08-03T22:15:08.849Z,21.57
2022-08-03T22:20:14.489Z,21.44
2022-08-03T22:25:17.557Z,21.33
2022-08-03T22:30:20.585Z,21.23
2022-08-03T22:35:26.054Z,21.11
2022-08-03T22:40:29.079Z,21.03
2022-08-03T22:46:06.014Z,20.90
2022-08-03T22:50:56.679Z,20.71
2022-08-03T22:55:59.683Z,20.57
2022-08-03T23:01:06.016Z,20.45
2022-08-03T23:06:09.332Z,20.34
2022-08-03T23:11:12.960Z,20.25
2022-08-03T23:16:29.299Z,20.15
2022-08-03T23:21:53.551Z,20.07
2022-08-03T23:26:56.686Z,20.03
2022-08-03T23:32:02.295Z,20.00
2022-08-03T23:37:05.833Z,19.95
2022-08-03T23:42:10.002Z,19.90
2022-08-03T23:47:14.036Z,19.88
2022-08-03T23:52:29.321Z,19.85
2022-08-03T23:57:52.401Z,19.79
